createdAt,value
2017-10-18T00:00:49.968Z,0.00
2017-10-18T00:01:50.401Z,0.00
2017-10-18T00:02:50.836Z,0.00
2017-10-18T00:03:51.269Z,0.00
2017-10-18T00:04:51.699Z,0.00
2017-10-18T00:05:52.133Z,0.00
2017-10-18T00:06:52.567Z,0.00
2017-10-18T00:07:52.998Z,0.00
2017-10-18T00:08:53.431Z,0.00
2017-10-18T00:09:53.863Z,0.00
2017-10-18T00:10:54.304Z,0.00
2017-10-18T00:11:54.734Z,0.00
2017-10-18T00:12:55.167Z,0.00
2017-10-18T00:13:55.595Z,0.00
2017-10-18T00:14:56.027Z,0.00
2017-10-18T00:15:56.465Z,0.00
2017-10-18T00:16:56.902Z,0.00
2017-10-18T00:17:57.327Z,0.00
2017-10-18T00:18:57.761Z,0.00
2017-10-18T00:19:58.193Z,0.00
2017-10-18T00:20:58.625Z,0.00
2017-10-18T00:21:59.076Z,0.00
2017-10-18T00:22:59.496Z,0.00
2017-10-18T00:23:59.924Z,0.00
2017-10-18T00:25:00.359Z,0.00
2017-10-18T00:26:00.789Z,0.00
2017-10-18T00:27:01.231Z,0.00
2017-10-18T00:28:01.663Z,0.00
2017-10-18T00:29:02.093Z,0.00
2017-10-18T00:30:02.519Z,0.00
2017-10-18T00:31:02.956Z,0.00
2017-10-18T00:32:03.390Z,0.00
2017-10-18T00:33:03.822Z,0.00
2017-10-18T00:34:04.253Z,0.00
2017-10-18T00:35:04.706Z,0.00
2017-10-18T00:36:05.122Z,0.00
2017-10-18T00:37:05.552Z,0.00
2017-10-18T00:38:05.993Z,0.00
2017-10-18T00:39:06.422Z,0.00
2017-10-18T00:40:06.854Z,0.00
2017-10-18T00:41:07.286Z,0.00
2017-10-18T00:42:07.716Z,0.00
2017-10-18T00:43:08.157Z,0.00
2017-10-18T00:44:08.586Z,0.00
2017-10-18T00:45:09.016Z,0.00
2017-10-18T00:46:09.446Z,0.00
2017-10-18T00:47:09.881Z,0.00
2017-10-18T00:48:10.314Z,0.00
2017-10-18T00:49:10.744Z,0.00
2017-10-18T00:50:11.176Z,0.00
2017-10-18T00:51:11.616Z,0.00
2017-10-18T00:52:12.044Z,0.00
2017-10-18T00:53:12.477Z,0.00
2017-10-18T00:54:12.909Z,0.00
2017-10-18T00:55:13.341Z,0.00
2017-10-18T00:56:13.778Z,0.00
2017-10-18T00:57:14.204Z,0.00
2017-10-18T00:58:14.638Z,0.00
2017-10-18T00:59:15.069Z,0.00
2017-10-18T01:00:15.503Z,0.00
2017-10-18T01:01:15.939Z,0.00
2017-10-18T01:02:16.367Z,0.00
2017-10-18T01:03:16.800Z,0.00
2017-10-18T01:04:17.237Z,0.00
2017-10-18T01:05:17.669Z,0.00
2017-10-18T01:06:18.101Z,0.00
2017-10-18T01:07:18.531Z,0.00
2017-10-18T01:08:18.990Z,0.00
2017-10-18T01:09:19.404Z,0.00
2017-10-18T01:10:19.826Z,0.00
2017-10-18T01:11:20.266Z,0.00
2017-10-18T01:12:20.701Z,0.00
2017-10-18T01:13:21.125Z,0.00
2017-10-18T01:14:21.560Z,0.00
2017-10-18T01:15:21.991Z,0.00
2017-10-18T01:16:22.428Z,0.00
2017-10-18T01:17:22.862Z,0.00
2017-10-18T01:18:23.292Z,0.00
2017-10-18T01:19:23.724Z,0.00
2017-10-18T01:20:24.155Z,0.00
2017-10-18T01:21:24.589Z,0.00
2017-10-18T01:22:25.020Z,0.00
2017-10-18T01:23:25.456Z,0.00
2017-10-18T01:24:25.888Z,0.00
2017-10-18T01:25:26.316Z,0.00
2017-10-18T01:26:26.750Z,0.00
2017-10-18T01:27:27.200Z,0.00
2017-10-18T01:28:27.621Z,0.00
2017-10-18T01:29:28.046Z,0.00
2017-10-18T01:30:28.479Z,0.00
2017-10-18T01:31:28.911Z,0.00
2017-10-18T01:32:29.358Z,0.00
2017-10-18T01:33:29.777Z,0.00
2017-10-18T01:34:30.205Z,0.00
2017-10-18T01:35:30.641Z,0.00
2017-10-18T01:36:31.070Z,0.00
2017-10-18T01:37:31.507Z,0.00
2017-10-18T01:38:31.939Z,0.00
2017-10-18T01:39:32.370Z,0.00
2017-10-18T01:40:32.803Z,0.00
2017-10-18T01:41:33.237Z,0.00
2017-10-18T01:42:33.668Z,0.00
2017-10-18T01:43:34.100Z,0.00
2017-10-18T01:44:34.541Z,0.00
2017-10-18T01:45:34.990Z,0.00
2017-10-18T01:46:35.403Z,0.00
2017-10-18T01:47:35.828Z,0.00
2017-10-18T01:48:36.270Z,0.00
2017-10-18T01:49:36.696Z,0.00
2017-10-18T01:50:37.125Z,0.00
2017-10-18T01:51:37.558Z,0.00
2017-10-18T01:52:37.993Z,0.00
2017-10-18T01:53:38.420Z,0.00
2017-10-18T01:54:38.854Z,0.00
2017-10-18T01:55:39.284Z,0.00
2017-10-18T01:56:39.718Z,0.00
2017-10-18T01:57:40.147Z,0.00
2017-10-18T01:58:40.584Z,0.00
2017-10-18T01:59:41.017Z,0.00
2017-10-18T02:00:41.445Z,0.00
2017-10-18T02:01:41.877Z,0.00
2017-10-18T02:02:42.313Z,0.00
2017-10-18T02:03:42.752Z,0.00
2017-10-18T02:04:43.176Z,0.00
2017-10-18T02:05:43.617Z,0.00
2017-10-18T02:06:44.040Z,0.00
2017-10-18T02:07:44.472Z,0.00
2017-10-18T02:08:44.908Z,0.00
2017-10-18T02:09:45.342Z,0.00
2017-10-18T02:10:45.766Z,0.00
2017-10-18T02:11:46.202Z,0.00
2017-10-18T02:12:46.632Z,0.00
2017-10-18T02:13:47.064Z,0.00
2017-10-18T02:14:47.501Z,0.00
2017-10-18T02:15:47.929Z,0.00
2017-10-18T02:16:48.361Z,0.00
2017-10-18T02:17:48.794Z,0.00
2017-10-18T02:18:49.224Z,0.00
2017-10-18T02:19:49.656Z,0.00
2017-10-18T02:20:50.087Z,0.00
2017-10-18T02:21:50.521Z,0.00
2017-10-18T02:22:50.953Z,0.00
2017-10-18T02:23:51.388Z,0.00
2017-10-18T02:24:51.818Z,0.00
2017-10-18T02:25:52.255Z,0.00
2017-10-18T02:26:52.690Z,0.00
2017-10-18T02:27:53.123Z,0.00
2017-10-18T02:28:53.545Z,0.00
2017-10-18T02:29:53.984Z,0.00
2017-10-18T02:30:54.413Z,0.00
2017-10-18T02:31:54.840Z,0.00
2017-10-18T02:32:55.275Z,0.00
2017-10-18T02:33:55.708Z,0.00
2017-10-18T02:34:56.145Z,0.00
2017-10-18T02:35:56.569Z,0.00
2017-10-18T02:36:57.006Z,0.00
2017-10-18T02:37:57.432Z,0.00
2017-10-18T02:38:57.866Z,0.00
2017-10-18T02:39:58.301Z,0.00
2017-10-18T02:40:58.732Z,0.00
2017-10-18T02:41:59.163Z,0.00
2017-10-18T02:42:59.595Z,0.00
2017-10-18T02:44:00.026Z,0.00
2017-10-18T02:45:00.456Z,0.00
2017-10-18T02:46:00.886Z,0.00
2017-10-18T02:47:01.317Z,0.00
2017-10-18T02:48:01.751Z,0.00
2017-10-18T02:49:02.186Z,0.00
2017-10-18T02:50:02.619Z,0.00
2017-10-18T02:51:03.044Z,0.00
2017-10-18T02:52:03.478Z,0.00
2017-10-18T02:53:03.906Z,0.00
2017-10-18T02:54:04.355Z,0.00
2017-10-18T02:55:04.772Z,0.00
2017-10-18T02:56:05.202Z,0.00
2017-10-18T02:57:05.636Z,0.00
2017-10-18T02:58:06.064Z,0.00
2017-10-18T02:59:06.494Z,0.00
2017-10-18T03:00:06.933Z,0.00
2017-10-18T03:01:07.362Z,0.00
2017-10-18T03:02:07.792Z,0.00
2017-10-18T03:03:08.219Z,0.00
2017-10-18T03:04:08.653Z,0.00
2017-10-18T03:05:09.090Z,0.00
2017-10-18T03:06:09.518Z,0.00
2017-10-18T03:07:09.946Z,0.00
2017-10-18T03:08:10.384Z,0.00
2017-10-18T03:09:10.813Z,0.00
2017-10-18T03:10:11.241Z,0.00
2017-10-18T03:11:11.677Z,0.00
2017-10-18T03:12:12.111Z,0.00
2017-10-18T03:13:12.539Z,0.00
2017-10-18T03:14:12.973Z,0.00
2017-10-18T03:15:13.400Z,0.00
2017-10-18T03:16:13.846Z,0.00
2017-10-18T03:17:14.266Z,0.00
2017-10-18T03:18:14.692Z,0.00
2017-10-18T03:19:15.125Z,0.00
2017-10-18T03:20:15.559Z,0.00
2017-10-18T03:21:15.997Z,0.00
2017-10-18T03:22:16.424Z,0.00
2017-10-18T03:23:16.850Z,0.00
2017-10-18T03:24:17.283Z,0.00
2017-10-18T03:25:17.714Z,0.00
2017-10-18T03:26:18.144Z,0.00
2017-10-18T03:27:18.577Z,0.00
2017-10-18T03:28:19.014Z,0.00
2017-10-18T03:29:19.440Z,0.00
2017-10-18T03:30:19.873Z,0.00
2017-10-18T03:31:20.306Z,0.00
2017-10-18T03:32:20.735Z,0.00
2017-10-18T03:33:21.163Z,0.00
2017-10-18T03:34:21.595Z,0.00
2017-10-18T03:35:22.038Z,0.00
2017-10-18T03:36:22.460Z,0.00
2017-10-18T03:37:22.899Z,0.00
2017-10-18T03:38:23.338Z,0.00
2017-10-18T03:39:23.755Z,0.00
2017-10-18T03:40:24.186Z,0.00
2017-10-18T03:41:24.618Z,0.00
2017-10-18T03:42:25.047Z,0.00
2017-10-18T03:43:25.478Z,0.00
2017-10-18T03:44:25.914Z,0.00
2017-10-18T03:45:26.341Z,0.00
2017-10-18T03:46:26.772Z,0.00
2017-10-18T03:47:27.203Z,0.00
2017-10-18T03:48:27.643Z,0.00
2017-10-18T03:49:28.066Z,0.00
2017-10-18T03:50:28.498Z,0.00
2017-10-18T03:51:28.931Z,0.00
2017-10-18T03:52:29.359Z,0.00
2017-10-18T03:53:29.791Z,0.00
2017-10-18T03:54:30.224Z,0.00
2017-10-18T03:55:30.658Z,0.00
2017-10-18T03:56:31.087Z,0.00
2017-10-18T03:57:31.515Z,0.00
2017-10-18T03:58:31.951Z,0.00
2017-10-18T03:59:32.379Z,0.00
2017-10-18T04:00:32.812Z,0.00
2017-10-18T04:01:33.244Z,0.00
2017-10-18T04:02:33.673Z,0.00
2017-10-18T04:03:34.110Z,0.00
2017-10-18T04:04:34.535Z,0.00
2017-10-18T04:05:34.965Z,0.00
2017-10-18T04:06:35.402Z,0.00
2017-10-18T04:07:35.834Z,0.00
2017-10-18T04:08:36.261Z,0.00
2017-10-18T04:09:36.693Z,0.00
2017-10-18T04:10:37.128Z,0.00
2017-10-18T04:11:37.560Z,0.00
2017-10-18T04:12:37.994Z,0.00
2017-10-18T04:13:38.443Z,0.00
2017-10-18T04:14:38.856Z,0.00
2017-10-18T04:15:39.281Z,0.00
2017-10-18T04:16:39.709Z,0.00
2017-10-18T04:17:40.143Z,0.00
2017-10-18T04:18:40.580Z,0.00
2017-10-18T04:19:41.004Z,0.00
2017-10-18T04:20:41.437Z,0.00
2017-10-18T04:21:41.867Z,0.00
2017-10-18T04:22:42.304Z,0.00
2017-10-18T04:23:42.736Z,0.00
2017-10-18T04:24:43.163Z,0.00
2017-10-18T04:25:43.595Z,0.00
2017-10-18T04:26:44.023Z,0.00
2017-10-18T04:27:44.466Z,0.00
2017-10-18T04:28:44.916Z,0.00
2017-10-18T04:29:45.321Z,0.00
2017-10-18T04:30:45.755Z,0.00
2017-10-18T04:31:46.180Z,0.00
2017-10-18T04:32:46.610Z,0.00
2017-10-18T04:33:47.044Z,0.00
2017-10-18T04:34:47.475Z,0.00
2017-10-18T04:35:47.902Z,0.00
2017-10-18T04:36:48.336Z,0.00
2017-10-18T04:37:48.767Z,0.00
2017-10-18T04:38:49.194Z,0.00
2017-10-18T04:39:49.630Z,0.00
2017-10-18T04:40:50.057Z,0.00
2017-10-18T04:41:50.489Z,0.00
2017-10-18T04:42:50.926Z,0.00
2017-10-18T04:43:51.351Z,0.00
2017-10-18T04:44:52.643Z,0.00
2017-10-18T04:45:52.224Z,0.00
2017-10-18T04:46:52.648Z,0.00
2017-10-18T04:47:53.077Z,0.00
2017-10-18T04:48:53.522Z,0.00
2017-10-18T04:49:53.942Z,0.00
2017-10-18T04:50:54.375Z,0.00
2017-10-18T04:51:54.816Z,0.00
2017-10-18T04:52:55.229Z,0.00
2017-10-18T04:53:55.664Z,0.00
2017-10-18T04:54:56.093Z,0.00
2017-10-18T04:55:56.521Z,0.00
2017-10-18T04:56:56.955Z,0.00
2017-10-18T04:57:57.389Z,0.00
2017-10-18T04:58:57.815Z,0.00
2017-10-18T04:59:58.250Z,0.00
2017-10-18T05:00:58.692Z,0.00
2017-10-18T05:01:59.109Z,0.00
2017-10-18T05:02:59.540Z,0.00
2017-10-18T05:03:59.975Z,0.00
2017-10-18T05:05:00.410Z,0.00
2017-10-18T05:06:00.836Z,0.00
2017-10-18T05:07:01.263Z,0.00
2017-10-18T05:08:01.693Z,0.00
2017-10-18T05:09:02.131Z,0.00
2017-10-18T05:10:02.572Z,0.00
2017-10-18T05:11:02.990Z,0.00
2017-10-18T05:12:03.416Z,0.00
2017-10-18T05:13:03.850Z,0.00
2017-10-18T05:14:04.278Z,0.00
2017-10-18T05:15:04.723Z,0.00
2017-10-18T05:16:05.140Z,0.00
2017-10-18T05:17:05.569Z,0.00
2017-10-18T05:18:06.006Z,0.00
2017-10-18T05:19:06.432Z,0.00
2017-10-18T05:20:06.911Z,0.00
2017-10-18T05:21:07.292Z,0.00
2017-10-18T05:22:07.728Z,0.00
2017-10-18T05:23:08.164Z,0.00
2017-10-18T05:24:08.586Z,0.00
2017-10-18T05:25:09.018Z,0.00
2017-10-18T05:26:09.448Z,0.00
2017-10-18T05:27:09.887Z,0.00
2017-10-18T05:28:10.306Z,0.00
2017-10-18T05:29:10.763Z,0.00
2017-10-18T05:30:11.170Z,0.00
2017-10-18T05:31:11.605Z,0.00
2017-10-18T05:32:12.031Z,0.00
2017-10-18T05:33:12.463Z,0.00
2017-10-18T05:34:12.896Z,0.00
2017-10-18T05:35:13.327Z,0.00
2017-10-18T05:36:13.752Z,0.00
2017-10-18T05:37:14.186Z,0.00
2017-10-18T05:38:14.617Z,5.63
2017-10-18T05:39:15.047Z,5.63
2017-10-18T05:40:15.482Z,5.63
2017-10-18T05:41:15.910Z,5.63
2017-10-18T05:42:16.339Z,5.63
2017-10-18T05:43:16.801Z,5.63
2017-10-18T05:44:17.200Z,5.63
2017-10-18T05:45:17.630Z,5.63
2017-10-18T05:46:18.075Z,5.63
2017-10-18T05:47:18.495Z,5.63
2017-10-18T05:48:18.926Z,11.25
2017-10-18T05:49:19.353Z,11.25
2017-10-18T05:50:19.787Z,11.25
2017-10-18T05:51:20.219Z,11.25
2017-10-18T05:52:20.648Z,11.25
2017-10-18T05:53:21.081Z,11.25
2017-10-18T05:54:21.511Z,11.25
2017-10-18T05:55:21.941Z,11.25
2017-10-18T05:56:22.370Z,11.25
2017-10-18T05:57:22.804Z,16.88
2017-10-18T05:58:23.239Z,16.88
2017-10-18T05:59:23.664Z,16.88
2017-10-18T06:00:24.096Z,16.88
2017-10-18T06:01:24.528Z,16.88
2017-10-18T06:02:24.962Z,22.50
2017-10-18T06:03:25.385Z,22.50
2017-10-18T06:04:25.820Z,22.50
2017-10-18T06:05:26.250Z,22.50
2017-10-18T06:06:26.696Z,28.13
2017-10-18T06:07:27.114Z,28.13
2017-10-18T06:08:27.543Z,28.13
2017-10-18T06:09:27.975Z,28.13
2017-10-18T06:10:28.401Z,33.75
2017-10-18T06:11:28.845Z,33.75
2017-10-18T06:12:29.281Z,33.75
2017-10-18T06:13:29.699Z,33.75
2017-10-18T06:14:30.126Z,33.75
2017-10-18T06:15:30.559Z,39.38
2017-10-18T06:16:30.988Z,39.38
2017-10-18T06:17:31.422Z,39.38
2017-10-18T06:18:31.860Z,39.38
2017-10-18T06:19:32.290Z,45.00
2017-10-18T06:20:32.713Z,45.00
2017-10-18T06:21:33.140Z,45.00
2017-10-18T06:22:33.576Z,50.63
2017-10-18T06:23:34.006Z,50.63
2017-10-18T06:24:34.433Z,56.25
2017-10-18T06:25:34.871Z,56.25
2017-10-18T06:26:35.299Z,56.25
2017-10-18T06:27:35.731Z,61.88
2017-10-18T06:28:36.163Z,61.88
2017-10-18T06:29:36.591Z,61.88
2017-10-18T06:30:37.025Z,61.88
2017-10-18T06:31:37.489Z,61.88
2017-10-18T06:32:37.889Z,67.50
2017-10-18T06:33:38.319Z,67.50
2017-10-18T06:34:38.747Z,73.13
2017-10-18T06:35:39.181Z,73.13
2017-10-18T06:36:39.619Z,73.13
2017-10-18T06:37:40.050Z,78.75
2017-10-18T06:38:40.481Z,78.75
2017-10-18T06:39:40.904Z,84.38
2017-10-18T06:40:41.337Z,84.38
2017-10-18T06:41:41.769Z,84.38
2017-10-18T06:42:42.199Z,90.00
2017-10-18T06:43:42.632Z,90.00
2017-10-18T06:44:43.061Z,90.00
2017-10-18T06:45:43.501Z,95.63
2017-10-18T06:46:43.928Z,95.63
2017-10-18T06:47:44.356Z,101.25
2017-10-18T06:48:44.792Z,101.25
2017-10-18T06:49:45.226Z,101.25
2017-10-18T06:50:45.660Z,106.88
2017-10-18T06:51:46.089Z,106.88
2017-10-18T06:52:46.518Z,112.50
2017-10-18T06:53:46.946Z,112.50
2017-10-18T06:54:47.382Z,118.13
2017-10-18T06:55:47.825Z,118.13
2017-10-18T06:56:48.248Z,118.13
2017-10-18T06:57:48.677Z,123.75
2017-10-18T06:58:49.113Z,123.75
2017-10-18T06:59:49.542Z,123.75
2017-10-18T07:00:49.973Z,123.75
2017-10-18T07:01:50.417Z,129.38
2017-10-18T07:02:50.849Z,129.38
2017-10-18T07:03:51.273Z,135.00
2017-10-18T07:04:51.704Z,135.00
2017-10-18T07:05:52.143Z,135.00
2017-10-18T07:06:52.588Z,140.63
2017-10-18T07:07:53.005Z,140.63
2017-10-18T07:08:53.484Z,146.25
2017-10-18T07:09:53.871Z,151.88
2017-10-18T07:10:54.318Z,151.88
2017-10-18T07:11:54.752Z,157.50
2017-10-18T07:12:55.185Z,163.13
2017-10-18T07:13:55.630Z,168.75
2017-10-18T07:14:56.056Z,168.75
2017-10-18T07:15:56.491Z,174.38
2017-10-18T07:16:56.928Z,180.00
2017-10-18T07:17:57.358Z,180.00
2017-10-18T07:18:57.791Z,191.25
2017-10-18T07:19:58.224Z,196.88
2017-10-18T07:20:58.660Z,202.50
2017-10-18T07:21:59.092Z,202.50
2017-10-18T07:22:59.532Z,208.13
2017-10-18T07:23:59.936Z,213.75
2017-10-18T07:25:00.392Z,219.38
2017-10-18T07:26:00.824Z,219.38
2017-10-18T07:27:01.250Z,213.75
2017-10-18T07:28:01.710Z,213.75
2017-10-18T07:29:02.125Z,225.00
2017-10-18T07:30:02.547Z,230.63
2017-10-18T07:31:03.013Z,236.25
2017-10-18T07:32:03.436Z,241.88
2017-10-18T07:33:03.866Z,253.13
2017-10-18T07:34:04.284Z,258.75
2017-10-18T07:35:04.712Z,264.38
2017-10-18T07:36:05.153Z,264.38
2017-10-18T07:37:05.596Z,258.75
2017-10-18T07:38:06.032Z,258.75
2017-10-18T07:39:06.450Z,264.38
2017-10-18T07:40:06.887Z,264.38
2017-10-18T07:41:07.322Z,253.13
2017-10-18T07:42:07.759Z,253.13
2017-10-18T07:43:08.189Z,247.50
2017-10-18T07:44:08.622Z,241.88
2017-10-18T07:45:09.062Z,236.25
2017-10-18T07:46:09.522Z,258.75
2017-10-18T07:47:09.945Z,270.00
2017-10-18T07:48:10.399Z,281.25
2017-10-18T07:49:10.809Z,286.88
2017-10-18T07:50:11.248Z,298.13
2017-10-18T07:51:11.691Z,303.75
2017-10-18T07:52:12.105Z,320.63
2017-10-18T07:53:12.556Z,315.00
2017-10-18T07:54:12.975Z,309.38
2017-10-18T07:55:13.420Z,326.25
2017-10-18T07:56:13.865Z,331.88
2017-10-18T07:57:14.277Z,348.75
2017-10-18T07:58:14.711Z,343.13
2017-10-18T07:59:15.148Z,320.63
2017-10-18T08:00:15.591Z,309.38
2017-10-18T08:01:16.035Z,326.25
2017-10-18T08:02:16.461Z,354.38
2017-10-18T08:03:16.891Z,360.00
2017-10-18T08:04:17.326Z,365.63
2017-10-18T08:05:17.771Z,365.63
2017-10-18T08:06:18.199Z,376.88
2017-10-18T08:07:18.634Z,388.13
2017-10-18T08:08:19.071Z,399.38
2017-10-18T08:09:19.506Z,405.00
2017-10-18T08:10:19.941Z,410.63
2017-10-18T08:11:20.379Z,410.63
2017-10-18T08:12:20.823Z,416.25
2017-10-18T08:13:21.248Z,427.50
2017-10-18T08:14:21.688Z,427.50
2017-10-18T08:15:22.128Z,421.88
2017-10-18T08:16:22.572Z,416.25
2017-10-18T08:17:22.997Z,438.75
2017-10-18T08:18:23.443Z,433.13
2017-10-18T08:19:23.871Z,461.25
2017-10-18T08:20:24.310Z,461.25
2017-10-18T08:21:24.742Z,427.50
2017-10-18T08:22:25.185Z,461.25
2017-10-18T08:23:25.618Z,483.75
2017-10-18T08:24:26.063Z,500.63
2017-10-18T08:25:26.490Z,511.88
2017-10-18T08:26:26.930Z,562.50
2017-10-18T08:27:27.366Z,680.63
2017-10-18T08:28:27.807Z,680.63
2017-10-18T08:29:28.241Z,697.50
2017-10-18T08:30:28.692Z,658.13
2017-10-18T08:31:29.122Z,708.75
2017-10-18T08:32:29.557Z,714.38
2017-10-18T08:33:29.996Z,753.75
2017-10-18T08:34:30.434Z,748.13
2017-10-18T08:35:30.875Z,742.50
2017-10-18T08:36:31.316Z,765.00
2017-10-18T08:37:31.755Z,815.63
2017-10-18T08:38:32.194Z,821.25
2017-10-18T08:39:32.641Z,821.25
2017-10-18T08:40:33.079Z,838.13
2017-10-18T08:41:33.522Z,849.38
2017-10-18T08:42:33.960Z,866.25
2017-10-18T08:43:34.412Z,883.13
2017-10-18T08:44:34.845Z,916.88
2017-10-18T08:45:35.290Z,939.38
2017-10-18T08:46:35.736Z,945.00
2017-10-18T08:47:36.177Z,950.63
2017-10-18T08:48:36.632Z,911.25
2017-10-18T08:49:37.064Z,866.25
2017-10-18T08:50:37.507Z,973.13
2017-10-18T08:51:37.951Z,1040.63
2017-10-18T08:52:38.397Z,1068.75
2017-10-18T08:53:38.842Z,1068.75
2017-10-18T08:54:39.293Z,1057.50
2017-10-18T08:55:39.733Z,1046.25
2017-10-18T08:56:40.184Z,1057.50
2017-10-18T08:57:40.626Z,1068.75
2017-10-18T08:58:41.073Z,1091.25
2017-10-18T08:59:41.531Z,1091.25
2017-10-18T09:00:41.969Z,1102.50
2017-10-18T09:01:42.413Z,1119.38
2017-10-18T09:02:42.860Z,1113.75
2017-10-18T09:03:43.307Z,1130.63
2017-10-18T09:04:43.761Z,1136.25
2017-10-18T09:05:44.202Z,1113.75
2017-10-18T09:06:44.652Z,1119.38
2017-10-18T09:07:45.100Z,1130.63
2017-10-18T09:08:45.550Z,1136.25
2017-10-18T09:09:45.999Z,1125.00
2017-10-18T09:10:46.445Z,1119.38
2017-10-18T09:11:46.893Z,1125.00
2017-10-18T09:12:47.344Z,1113.75
2017-10-18T09:13:47.796Z,1102.50
2017-10-18T09:14:48.242Z,1125.00
2017-10-18T09:15:48.696Z,1119.38
2017-10-18T09:16:49.145Z,1119.38
2017-10-18T09:17:49.593Z,1141.88
2017-10-18T09:18:50.046Z,1130.63
2017-10-18T09:19:50.495Z,1119.38
2017-10-18T09:20:50.947Z,1113.75
2017-10-18T09:21:51.395Z,1136.25
2017-10-18T09:22:51.848Z,1164.38
2017-10-18T09:23:52.309Z,1186.88
2017-10-18T09:24:52.752Z,1220.63
2017-10-18T09:25:53.203Z,1226.25
2017-10-18T09:26:53.656Z,1209.38
2017-10-18T09:27:54.106Z,1102.50
2017-10-18T09:28:54.560Z,1113.75
2017-10-18T09:29:55.017Z,1186.88
2017-10-18T09:30:55.468Z,1203.75
2017-10-18T09:31:55.920Z,1231.88
2017-10-18T09:32:56.384Z,1237.50
2017-10-18T09:33:56.828Z,1237.50
2017-10-18T09:34:57.275Z,1220.63
2017-10-18T09:35:57.733Z,1226.25
2017-10-18T09:36:58.185Z,1260.00
2017-10-18T09:37:58.641Z,1113.75
2017-10-18T09:38:59.089Z,1096.88
2017-10-18T09:39:59.549Z,1096.88
2017-10-18T09:40:59.997Z,1181.25
2017-10-18T09:42:00.454Z,1248.75
2017-10-18T09:43:00.909Z,1231.88
2017-10-18T09:44:01.365Z,1254.38
2017-10-18T09:45:01.814Z,1108.13
2017-10-18T09:46:02.267Z,787.50
2017-10-18T09:47:02.721Z,714.38
2017-10-18T09:48:03.177Z,703.13
2017-10-18T09:49:03.631Z,691.88
2017-10-18T09:50:04.086Z,680.63
2017-10-18T09:51:04.539Z,680.63
2017-10-18T09:52:04.995Z,680.63
2017-10-18T09:53:05.450Z,669.38
2017-10-18T09:54:05.908Z,658.13
2017-10-18T09:55:06.359Z,652.50
2017-10-18T09:56:06.814Z,646.88
2017-10-18T09:57:07.268Z,646.88
2017-10-18T09:58:07.731Z,646.88
2017-10-18T09:59:08.183Z,646.88
2017-10-18T10:00:08.672Z,646.88
2017-10-18T10:01:09.096Z,646.88
2017-10-18T10:02:09.549Z,641.25
2017-10-18T10:03:10.000Z,641.25
2017-10-18T10:04:10.470Z,641.25
2017-10-18T10:05:10.913Z,641.25
2017-10-18T10:06:11.369Z,652.50
2017-10-18T10:07:11.826Z,652.50
2017-10-18T10:08:12.281Z,652.50
2017-10-18T10:09:12.740Z,646.88
2017-10-18T10:10:13.196Z,658.13
2017-10-18T10:11:13.651Z,646.88
2017-10-18T10:12:14.118Z,652.50
2017-10-18T10:13:14.567Z,646.88
2017-10-18T10:14:15.020Z,646.88
2017-10-18T10:15:15.482Z,652.50
2017-10-18T10:16:15.936Z,646.88
2017-10-18T10:17:16.390Z,663.75
2017-10-18T10:18:16.849Z,675.00
2017-10-18T10:19:17.300Z,680.63
2017-10-18T10:20:17.760Z,832.50
2017-10-18T10:21:18.213Z,1192.50
2017-10-18T10:22:18.669Z,1333.13
2017-10-18T10:23:19.126Z,1372.50
2017-10-18T10:24:19.579Z,1338.75
2017-10-18T10:25:20.039Z,1321.88
2017-10-18T10:26:20.495Z,1321.88
2017-10-18T10:27:20.951Z,1327.50
2017-10-18T10:28:21.405Z,1316.25
2017-10-18T10:29:21.864Z,1265.63
2017-10-18T10:30:22.315Z,1254.38
2017-10-18T10:31:22.787Z,1209.38
2017-10-18T10:32:23.236Z,1198.13
2017-10-18T10:33:23.692Z,1198.13
2017-10-18T10:34:24.149Z,1198.13
2017-10-18T10:35:24.600Z,1203.75
2017-10-18T10:36:25.059Z,1231.88
2017-10-18T10:37:25.514Z,1243.13
2017-10-18T10:38:25.972Z,1243.13
2017-10-18T10:39:26.433Z,1220.63
2017-10-18T10:40:26.885Z,1198.13
2017-10-18T10:41:27.343Z,1113.75
2017-10-18T10:42:27.797Z,1001.25
2017-10-18T10:43:28.256Z,1057.50
2017-10-18T10:44:28.711Z,1130.63
2017-10-18T10:45:29.174Z,1108.13
2017-10-18T10:46:29.626Z,1074.38
2017-10-18T10:47:30.082Z,1220.63
2017-10-18T10:48:30.541Z,1310.63
2017-10-18T10:49:30.995Z,1338.75
2017-10-18T10:50:31.458Z,1310.63
2017-10-18T10:51:31.915Z,1147.50
2017-10-18T10:52:32.367Z,995.63
2017-10-18T10:56:40.779Z,1265.63
2017-10-18T10:57:41.197Z,1299.38
2017-10-18T10:59:37.142Z,1305.00
2017-10-18T11:02:10.767Z,1327.50
2017-10-18T11:03:11.213Z,1316.25
2017-10-18T11:04:11.711Z,1310.63
2017-10-18T11:06:45.309Z,1299.38
2017-10-18T11:07:45.724Z,1316.25
2017-10-18T11:09:44.890Z,1316.25
2017-10-18T11:12:19.868Z,1119.38
2017-10-18T11:13:20.289Z,1136.25
2017-10-18T11:14:20.730Z,1203.75
2017-10-18T11:15:21.189Z,1305.00
2017-10-18T11:16:21.646Z,1338.75
2017-10-18T11:17:22.098Z,1305.00
2017-10-18T11:18:22.556Z,1271.25
2017-10-18T11:19:23.016Z,1237.50
2017-10-18T11:20:23.468Z,1226.25
2017-10-18T11:21:23.927Z,1203.75
2017-10-18T11:22:24.400Z,736.88
2017-10-18T11:23:24.846Z,843.75
2017-10-18T11:24:25.296Z,838.13
2017-10-18T11:25:25.772Z,466.88
2017-10-18T11:26:26.214Z,444.38
2017-10-18T11:27:26.668Z,433.13
2017-10-18T11:28:27.133Z,427.50
2017-10-18T11:29:27.582Z,421.88
2017-10-18T11:30:28.093Z,421.88
2017-10-18T11:31:28.483Z,421.88
2017-10-18T11:32:28.944Z,416.25
2017-10-18T11:33:29.397Z,410.63
2017-10-18T11:34:29.852Z,405.00
2017-10-18T11:35:30.306Z,399.38
2017-10-18T11:36:30.759Z,393.75
2017-10-18T11:37:31.209Z,388.13
2017-10-18T11:38:31.660Z,388.13
2017-10-18T11:39:32.112Z,388.13
2017-10-18T11:40:32.562Z,388.13
2017-10-18T11:41:33.011Z,382.50
2017-10-18T11:42:33.463Z,376.88
2017-10-18T11:45:07.056Z,376.88
2017-10-18T11:46:07.491Z,365.63
2017-10-18T11:48:02.088Z,360.00
2017-10-18T11:49:02.537Z,360.00
2017-10-18T11:50:57.150Z,348.75
2017-10-18T11:51:57.585Z,343.13
2017-10-18T11:52:58.027Z,348.75
2017-10-18T11:53:58.475Z,348.75
2017-10-18T11:54:58.921Z,348.75
2017-10-18T11:55:59.371Z,354.38
2017-10-18T11:56:59.815Z,354.38
2017-10-18T11:58:00.260Z,348.75
2017-10-18T11:59:00.712Z,348.75
2017-10-18T12:00:01.152Z,343.13
2017-10-18T12:01:01.596Z,337.50
2017-10-18T12:02:02.041Z,337.50
2017-10-18T12:03:02.492Z,331.88
2017-10-18T12:04:02.954Z,337.50
2017-10-18T12:05:03.408Z,331.88
2017-10-18T12:06:03.822Z,331.88
2017-10-18T12:07:04.266Z,331.88
2017-10-18T12:08:04.711Z,326.25
2017-10-18T12:09:05.162Z,320.63
2017-10-18T12:10:05.607Z,315.00
2017-10-18T12:11:06.052Z,303.75
2017-10-18T12:12:06.503Z,298.13
2017-10-18T12:13:06.940Z,303.75
2017-10-18T12:14:07.424Z,309.38
2017-10-18T12:16:41.974Z,309.38
2017-10-18T12:17:42.400Z,309.38
2017-10-18T12:19:37.057Z,303.75
2017-10-18T12:20:37.453Z,303.75
2017-10-18T12:22:32.044Z,286.88
2017-10-18T12:23:32.489Z,292.50
2017-10-18T12:25:27.081Z,298.13
2017-10-18T12:26:27.511Z,298.13
2017-10-18T12:27:27.960Z,292.50
2017-10-18T12:28:28.396Z,286.88
2017-10-18T12:29:28.837Z,281.25
2017-10-18T12:30:29.280Z,275.63
2017-10-18T12:31:29.754Z,275.63
2017-10-18T12:32:30.175Z,275.63
2017-10-18T12:33:30.608Z,275.63
2017-10-18T12:34:31.050Z,275.63
2017-10-18T12:35:31.494Z,270.00
2017-10-18T12:36:31.935Z,270.00
2017-10-18T12:37:32.378Z,264.38
2017-10-18T12:38:32.850Z,258.75
2017-10-18T12:39:33.280Z,241.88
2017-10-18T12:40:33.704Z,230.63
2017-10-18T12:41:34.146Z,225.00
2017-10-18T12:42:34.599Z,230.63
2017-10-18T12:43:35.050Z,230.63
2017-10-18T12:44:35.475Z,236.25
2017-10-18T12:45:35.912Z,241.88
2017-10-18T12:46:36.365Z,247.50
2017-10-18T12:47:36.800Z,258.75
2017-10-18T12:48:37.242Z,258.75
2017-10-18T12:49:37.680Z,258.75
2017-10-18T12:50:38.133Z,258.75
2017-10-18T12:51:38.582Z,253.13
2017-10-18T12:52:39.012Z,247.50
2017-10-18T12:53:39.452Z,253.13
2017-10-18T12:54:39.901Z,253.13
2017-10-18T12:55:40.335Z,253.13
2017-10-18T12:56:40.781Z,247.50
2017-10-18T12:57:41.221Z,236.25
2017-10-18T12:58:41.671Z,225.00
2017-10-18T12:59:42.103Z,219.38
2017-10-18T13:00:42.543Z,230.63
2017-10-18T13:01:42.990Z,219.38
2017-10-18T13:02:43.438Z,230.63
2017-10-18T13:03:43.870Z,236.25
2017-10-18T13:04:44.311Z,241.88
2017-10-18T13:05:44.760Z,247.50
2017-10-18T13:06:45.192Z,253.13
2017-10-18T13:07:45.642Z,253.13
2017-10-18T13:08:46.076Z,258.75
2017-10-18T13:09:46.522Z,247.50
2017-10-18T13:10:46.958Z,247.50
2017-10-18T13:11:47.409Z,247.50